Time;durP1;ratioP1;P1;durP2;ratioP2;P2;SDS_P1;SDS_P2;PMS_P1;PMS_P2;Temp;Humidity;BMP_temperature;BMP_pressure;BME280_temperature;BME280_humidity;BME280_pressure;Samples;Min_cycle;Max_cycle;Signal;HPM_P1;HPM_P2
2022/02/15 00:01:37;;;;;;;7.63;2.10;;;;;;;;;;5069228;28;20075;-71
2022/02/15 00:04:03;;;;;;;13.23;2.50;;;;;;;;;;5068879;28;20092;-72
2022/02/15 00:06:28;;;;;;;11.38;2.88;;;;;;;;;;5052397;28;20408;-72
2022/02/15 00:08:54;;;;;;;8.98;2.45;;;;;;;;;;5050927;28;20024;-72
2022/02/15 00:11:19;;;;;;;9.32;2.22;;;;;;;;;;5055993;28;20028;-71
2022/02/15 00:13:44;;;;;;;10.25;2.53;;;;;;;;;;5061694;28;20472;-71
2022/02/15 00:16:09;;;;;;;13.95;2.65;;;;;;;;;;5049751;28;20029;-71
2022/02/15 00:18:34;;;;;;;11.03;3.13;;;;;;;;;;5053863;28;20381;-74
2022/02/15 00:21:01;;;;;;;13.03;2.90;;;;;;;;;;5055033;28;20266;-73
2022/02/15 00:23:26;;;;;;;11.05;3.30;;;;;;;;;;5059387;28;20262;-72
2022/02/15 00:25:52;;;;;;;16.05;3.35;;;;;;;;;;5049686;28;20031;-72
2022/02/15 00:28:17;;;;;;;9.67;2.77;;;;;;;;;;5051081;28;20044;-72
2022/02/15 00:30:42;;;;;;;6.80;2.60;;;;;;;;;;5058438;28;20282;-72
2022/02/15 00:33:07;;;;;;;11.80;3.20;;;;;;;;;;5050345;28;20025;-72
2022/02/15 00:35:32;;;;;;;14.95;3.20;;;;;;;;;;5057043;28;20489;-72
2022/02/15 00:37:58;;;;;;;14.20;2.92;;;;;;;;;;5050296;28;20512;-72
2022/02/15 00:40:23;;;;;;;14.82;2.92;;;;;;;;;;5060126;28;20051;-72
2022/02/15 00:42:48;;;;;;;4.38;1.40;;;;;;;;;;5056104;28;20522;-72
2022/02/15 00:45:13;;;;;;;11.75;3.00;;;;;;;;;;5053580;28;20029;-72
2022/02/15 00:47:39;;;;;;;11.88;2.78;;;;;;;;;;5053780;28;20425;-72
2022/02/15 00:50:04;;;;;;;12.60;2.60;;;;;;;;;;5053626;28;20020;-72
2022/02/15 00:52:30;;;;;;;11.52;2.67;;;;;;;;;;5053860;28;20051;-72
2022/02/15 00:54:55;;;;;;;10.95;2.30;;;;;;;;;;5053278;28;20358;-72
2022/02/15 00:57:22;;;;;;;8.57;3.20;;;;;;;;;;5056387;28;20024;-72
2022/02/15 00:59:47;;;;;;;8.63;2.97;;;;;;;;;;5049800;28;20020;-72
2022/02/15 01:02:12;;;;;;;13.18;3.20;;;;;;;;;;5053844;28;20028;-72
2022/02/15 01:04:38;;;;;;;15.27;2.63;;;;;;;;;;5053643;28;20033;-72
2022/02/15 01:07:03;;;;;;;12.73;2.40;;;;;;;;;;5052913;28;20032;-72
2022/02/15 01:09:28;;;;;;;14.95;2.67;;;;;;;;;;5053161;28;20473;-72
2022/02/15 01:11:54;;;;;;;14.07;2.78;;;;;;;;;;5056929;28;20119;-72
2022/02/15 01:14:20;;;;;;;16.02;3.28;;;;;;;;;;5060196;28;20031;-72
2022/02/15 01:16:45;;;;;;;14.73;4.55;;;;;;;;;;5052265;28;20090;-72
2022/02/15 01:19:10;;;;;;;14.50;2.40;;;;;;;;;;5058039;28;20021;-72
2022/02/15 01:21:36;;;;;;;14.68;2.40;;;;;;;;;;5059182;28;20546;-72
2022/02/15 01:24:01;;;;;;;13.13;3.58;;;;;;;;;;5058601;28;20111;-72
2022/02/15 01:26:26;;;;;;;14.77;3.00;;;;;;;;;;5055641;28;20480;-72
2022/02/15 01:28:51;;;;;;;17.70;2.42;;;;;;;;;;5063831;28;20031;-72
2022/02/15 01:31:17;;;;;;;10.13;3.28;;;;;;;;;;5054612;28;20124;-72
2022/02/15 01:33:42;;;;;;;10.90;3.10;;;;;;;;;;5053992;28;20016;-72
2022/02/15 01:36:07;;;;;;;11.70;3.22;;;;;;;;;;5055781;28;20303;-72
2022/02/15 01:38:32;;;;;;;11.87;3.27;;;;;;;;;;5053032;28;20051;-72
2022/02/15 01:40:57;;;;;;;10.25;3.40;;;;;;;;;;5051330;28;20728;-72
2022/02/15 01:43:23;;;;;;;11.07;3.60;;;;;;;;;;5060799;28;20514;-72
2022/02/15 01:45:48;;;;;;;16.20;4.28;;;;;;;;;;5052050;28;20288;-72
2022/02/15 01:48:14;;;;;;;13.00;3.97;;;;;;;;;;5060458;28;20416;-72
2022/02/15 01:50:39;;;;;;;14.90;3.40;;;;;;;;;;5052709;28;20040;-72
2022/02/15 01:53:04;;;;;;;10.65;3.55;;;;;;;;;;5051913;28;20072;-72
2022/02/15 01:55:29;;;;;;;12.18;3.45;;;;;;;;;;5052322;28;20350;-72
2022/02/15 01:57:54;;;;;;;14.85;3.97;;;;;;;;;;5051202;28;20060;-72
2022/02/15 02:00:20;;;;;;;10.23;3.03;;;;;;;;;;5056026;28;20095;-72
2022/02/15 02:02:45;;;;;;;21.13;4.60;;;;;;;;;;5052384;28;20013;-72
2022/02/15 02:07:56;;;;;;;14.50;4.68;;;;;;;;;;5052732;28;20631;-72
2022/02/15 02:10:21;;;;;;;18.88;5.13;;;;;;;;;;5052716;28;20029;-72
2022/02/15 02:12:46;;;;;;;18.95;5.20;;;;;;;;;;5052017;28;20017;-72
2022/02/15 02:15:16;;;;;;;14.43;4.38;;;;;;;;;;5052193;28;20017;-72
2022/02/15 02:17:41;;;;;;;14.53;5.00;;;;;;;;;;5052048;28;20028;-72
2022/02/15 02:20:08;;;;;;;18.63;3.90;;;;;;;;;;5052460;28;20044;-72
2022/02/15 02:22:33;;;;;;;12.85;3.67;;;;;;;;;;5055620;28;20089;-72
2022/02/15 02:24:58;;;;;;;16.40;4.17;;;;;;;;;;5060269;28;20104;-72
2022/02/15 02:27:27;;;;;;;17.58;4.35;;;;;;;;;;5054463;28;20767;-72
2022/02/15 02:29:54;;;;;;;17.33;4.75;;;;;;;;;;5061282;28;20074;-72
2022/02/15 02:32:23;;;;;;;16.15;6.00;;;;;;;;;;5052674;28;20028;-72
2022/02/15 02:34:49;;;;;;;13.30;4.75;;;;;;;;;;5052803;28;20036;-72
2022/02/15 02:37:14;;;;;;;18.13;4.43;;;;;;;;;;5053373;28;20028;-72
2022/02/15 02:39:44;;;;;;;12.73;4.95;;;;;;;;;;5061255;28;20100;-72
2022/02/15 02:42:09;;;;;;;9.13;3.28;;;;;;;;;;5046775;28;20613;-72
2022/02/15 02:44:35;;;;;;;9.02;3.72;;;;;;;;;;5055493;28;20025;-72
2022/02/15 02:47:00;;;;;;;9.13;3.70;;;;;;;;;;5058498;28;20032;-72
2022/02/15 02:49:25;;;;;;;10.32;3.40;;;;;;;;;;5053184;28;20385;-72
2022/02/15 02:51:50;;;;;;;11.82;4.03;;;;;;;;;;5052730;28;20387;-71
2022/02/15 02:54:15;;;;;;;16.87;5.40;;;;;;;;;;5051619;28;20033;-71
2022/02/15 02:56:40;;;;;;;15.67;4.40;;;;;;;;;;5051201;28;20280;-71
2022/02/15 02:59:06;;;;;;;15.00;3.70;;;;;;;;;;5051578;28;20342;-71
2022/02/15 03:01:31;;;;;;;19.40;3.58;;;;;;;;;;5051444;28;20259;-71
2022/02/15 03:03:56;;;;;;;11.82;4.25;;;;;;;;;;5050319;28;20158;-72
2022/02/15 03:06:21;;;;;;;13.83;4.63;;;;;;;;;;5050259;28;20024;-72
2022/02/15 03:08:47;;;;;;;15.63;6.43;;;;;;;;;;5056614;28;20770;-72
2022/02/15 03:11:12;;;;;;;19.17;5.80;;;;;;;;;;5059111;28;20468;-72
2022/02/15 03:13:37;;;;;;;21.88;5.72;;;;;;;;;;5057615;28;20029;-71
2022/02/15 03:16:02;;;;;;;19.98;5.10;;;;;;;;;;5050949;28;20125;-71
2022/02/15 03:18:28;;;;;;;19.13;5.35;;;;;;;;;;5056450;28;20040;-71
2022/02/15 03:20:53;;;;;;;18.00;5.90;;;;;;;;;;5060903;28;20032;-71
2022/02/15 03:23:19;;;;;;;18.07;4.80;;;;;;;;;;5057430;28;20433;-71
2022/02/15 03:25:44;;;;;;;16.55;5.57;;;;;;;;;;5055252;28;20279;-71
2022/02/15 03:28:09;;;;;;;15.27;5.45;;;;;;;;;;5035304;28;20056;-71
2022/02/15 03:30:37;;;;;;;16.23;4.73;;;;;;;;;;5051901;28;20063;-71
2022/02/15 03:33:02;;;;;;;20.23;5.07;;;;;;;;;;5052200;28;20328;-71
2022/02/15 03:35:27;;;;;;;23.55;5.47;;;;;;;;;;5058106;28;20025;-71
2022/02/15 03:37:52;;;;;;;17.17;5.25;;;;;;;;;;5052741;28;20052;-71
2022/02/15 03:40:18;;;;;;;20.00;6.65;;;;;;;;;;5059924;28;20066;-71
2022/02/15 03:45:27;;;;;;;15.82;5.25;;;;;;;;;;5057173;28;20031;-71
2022/02/15 03:47:53;;;;;;;10.43;5.10;;;;;;;;;;5052376;28;20017;-71
2022/02/15 03:50:18;;;;;;;18.13;6.50;;;;;;;;;;5049502;28;20554;-71
2022/02/15 03:52:43;;;;;;;15.05;5.90;;;;;;;;;;5046169;28;20037;-71
2022/02/15 03:55:08;;;;;;;13.83;5.50;;;;;;;;;;5049671;28;20033;-71
2022/02/15 03:57:35;;;;;;;12.13;5.45;;;;;;;;;;5044848;28;20365;-71
2022/02/15 04:00:02;;;;;;;14.93;5.68;;;;;;;;;;5050465;28;20227;-71
2022/02/15 04:02:27;;;;;;;22.02;6.05;;;;;;;;;;5050687;28;20025;-72
2022/02/15 04:04:52;;;;;;;13.73;5.83;;;;;;;;;;5050212;28;20021;-72
2022/02/15 04:07:17;;;;;;;21.10;7.47;;;;;;;;;;5049712;28;20251;-71
2022/02/15 04:09:42;;;;;;;18.50;5.57;;;;;;;;;;5050269;28;20527;-71
2022/02/15 04:12:08;;;;;;;16.57;5.97;;;;;;;;;;5050154;28;20347;-71
2022/02/15 04:14:33;;;;;;;22.13;6.38;;;;;;;;;;5050152;28;20751;-71
2022/02/15 04:16:58;;;;;;;20.20;5.68;;;;;;;;;;5046029;28;20075;-72
2022/02/15 04:19:23;;;;;;;20.75;6.88;;;;;;;;;;5047280;28;20075;-71
2022/02/15 04:21:49;;;;;;;17.17;7.60;;;;;;;;;;5048724;28;20025;-71
2022/02/15 04:24:14;;;;;;;32.65;7.65;;;;;;;;;;5052123;28;20076;-70
2022/02/15 04:26:40;;;;;;;28.38;6.78;;;;;;;;;;5048254;28;20033;-71
2022/02/15 04:29:05;;;;;;;17.95;7.60;;;;;;;;;;5055276;28;20469;-71
2022/02/15 04:31:30;;;;;;;18.48;5.50;;;;;;;;;;5048777;28;20078;-71
2022/02/15 04:33:55;;;;;;;27.97;7.10;;;;;;;;;;5048453;28;20028;-70
2022/02/15 04:36:20;;;;;;;21.05;8.00;;;;;;;;;;5049052;28;20319;-70
2022/02/15 04:38:45;;;;;;;20.58;7.78;;;;;;;;;;5050595;28;20021;-70
2022/02/15 04:41:11;;;;;;;15.82;7.38;;;;;;;;;;5058217;28;20024;-71
2022/02/15 04:43:36;;;;;;;18.38;7.82;;;;;;;;;;5047868;28;20421;-71
2022/02/15 04:46:01;;;;;;;15.57;7.00;;;;;;;;;;5048564;28;20033;-71
2022/02/15 04:48:27;;;;;;;22.13;7.30;;;;;;;;;;5050200;28;20104;-71
2022/02/15 04:50:52;;;;;;;18.85;6.68;;;;;;;;;;5046311;28;20075;-70
2022/02/15 04:53:17;;;;;;;16.13;7.03;;;;;;;;;;5050355;28;20025;-70
2022/02/15 04:55:42;;;;;;;16.53;7.07;;;;;;;;;;5053347;28;20362;-71
2022/02/15 04:58:07;;;;;;;22.20;7.97;;;;;;;;;;5050451;28;20279;-70
2022/02/15 05:00:33;;;;;;;25.08;8.90;;;;;;;;;;5050888;28;20024;-70
2022/02/15 05:02:58;;;;;;;28.00;8.77;;;;;;;;;;5050234;28;20021;-70
2022/02/15 05:05:23;;;;;;;26.77;7.80;;;;;;;;;;5050469;28;20032;-70
2022/02/15 05:07:48;;;;;;;20.13;8.07;;;;;;;;;;5057393;28;20611;-71
2022/02/15 05:10:13;;;;;;;22.45;9.07;;;;;;;;;;5050164;28;20354;-70
2022/02/15 05:12:39;;;;;;;18.45;8.18;;;;;;;;;;5050295;28;20507;-71
2022/02/15 05:15:09;;;;;;;23.98;8.70;;;;;;;;;;5048048;28;20021;-69
2022/02/15 05:17:35;;;;;;;23.85;8.63;;;;;;;;;;5050070;28;20151;-71
2022/02/15 05:20:00;;;;;;;29.45;11.35;;;;;;;;;;5053357;28;20052;-70
2022/02/15 05:22:25;;;;;;;30.27;10.63;;;;;;;;;;5049034;28;20031;-71
2022/02/15 05:24:50;;;;;;;28.80;10.80;;;;;;;;;;5059996;28;20032;-70
2022/02/15 05:27:17;;;;;;;23.70;10.47;;;;;;;;;;5053810;28;20071;-71
2022/02/15 05:29:43;;;;;;;23.77;10.75;;;;;;;;;;5059365;28;20271;-70
2022/02/15 05:32:09;;;;;;;26.27;10.75;;;;;;;;;;5053079;28;20111;-70
2022/02/15 05:34:34;;;;;;;33.65;11.88;;;;;;;;;;5050627;28;20782;-71
2022/02/15 05:36:59;;;;;;;33.60;11.43;;;;;;;;;;5050257;28;20036;-71
2022/02/15 05:39:24;;;;;;;20.30;7.95;;;;;;;;;;5048497;28;20025;-71
2022/02/15 05:41:50;;;;;;;16.37;5.77;;;;;;;;;;5051948;28;20389;-71
2022/02/15 05:44:15;;;;;;;21.50;7.65;;;;;;;;;;5046457;28;20299;-71
2022/02/15 05:46:40;;;;;;;19.50;8.73;;;;;;;;;;5051777;28;20021;-70
2022/02/15 05:49:07;;;;;;;21.77;7.50;;;;;;;;;;5052650;28;20055;-71
2022/02/15 05:51:32;;;;;;;20.02;8.70;;;;;;;;;;5052255;28;20271;-71
2022/02/15 05:53:57;;;;;;;20.80;8.88;;;;;;;;;;5052142;28;20020;-70
2022/02/15 05:56:22;;;;;;;20.08;8.05;;;;;;;;;;5052842;28;20029;-70
2022/02/15 05:58:47;;;;;;;19.75;8.45;;;;;;;;;;5052249;28;20354;-70
2022/02/15 06:01:13;;;;;;;22.43;7.00;;;;;;;;;;5052565;28;20110;-70
2022/02/15 06:06:21;;;;;;;20.17;8.25;;;;;;;;;;5050476;28;20295;-70
2022/02/15 06:08:47;;;;;;;23.57;9.60;;;;;;;;;;5044679;28;20477;-71
2022/02/15 06:11:12;;;;;;;20.65;9.23;;;;;;;;;;5042007;28;20322;-70
2022/02/15 06:13:37;;;;;;;23.80;8.57;;;;;;;;;;5051792;28;20052;-71
2022/02/15 06:16:02;;;;;;;28.03;11.37;;;;;;;;;;5050890;28;20299;-70
2022/02/15 06:18:27;;;;;;;29.83;10.05;;;;;;;;;;5051018;28;20271;-70
2022/02/15 06:20:53;;;;;;;8.35;4.35;;;;;;;;;;5050615;28;20757;-71
2022/02/15 06:23:18;;;;;;;31.27;10.93;;;;;;;;;;5051583;28;20760;-72
2022/02/15 06:25:43;;;;;;;25.63;11.55;;;;;;;;;;5058986;28;20270;-72
2022/02/15 06:28:08;;;;;;;19.90;8.53;;;;;;;;;;5051500;28;20427;-70
2022/02/15 06:30:34;;;;;;;26.02;9.73;;;;;;;;;;5059896;28;20354;-69
2022/02/15 06:32:59;;;;;;;19.75;8.32;;;;;;;;;;5053075;28;20056;-69
2022/02/15 06:35:24;;;;;;;22.90;8.48;;;;;;;;;;5049800;28;20029;-69
2022/02/15 06:37:50;;;;;;;25.33;9.02;;;;;;;;;;5048163;28;20385;-72
2022/02/15 06:40:16;;;;;;;21.90;9.38;;;;;;;;;;5050878;28;20037;-69
2022/02/15 06:42:42;;;;;;;19.77;7.10;;;;;;;;;;5059906;28;20377;-71
2022/02/15 06:45:07;;;;;;;19.80;7.55;;;;;;;;;;5059868;28;20016;-73
2022/02/15 06:47:33;;;;;;;24.67;7.93;;;;;;;;;;5050567;28;20025;-69
2022/02/15 06:49:59;;;;;;;19.75;6.40;;;;;;;;;;5051294;28;20104;-72
2022/02/15 06:52:25;;;;;;;14.77;5.57;;;;;;;;;;5055499;28;20021;-69
2022/02/15 06:54:51;;;;;;;15.75;7.55;;;;;;;;;;5063392;28;20020;-69
2022/02/15 06:57:16;;;;;;;16.38;6.80;;;;;;;;;;5039719;28;20025;-69
2022/02/15 06:59:42;;;;;;;12.97;6.77;;;;;;;;;;5050482;28;20017;-69
2022/02/15 07:02:07;;;;;;;14.50;5.50;;;;;;;;;;5053844;28;20255;-69
2022/02/15 07:04:32;;;;;;;7.32;4.18;;;;;;;;;;5054468;28;20431;-74
2022/02/15 07:06:58;;;;;;;11.57;4.43;;;;;;;;;;5053906;28;20024;-71
2022/02/15 07:09:23;;;;;;;10.63;4.90;;;;;;;;;;5055245;28;20028;-72
2022/02/15 07:11:48;;;;;;;10.70;4.43;;;;;;;;;;5054216;28;20295;-71
2022/02/15 07:14:13;;;;;;;11.65;5.35;;;;;;;;;;5046729;28;20275;-71
2022/02/15 07:16:41;;;;;;;11.05;4.47;;;;;;;;;;5050711;28;20646;-71
2022/02/15 07:19:06;;;;;;;13.45;3.08;;;;;;;;;;5049540;28;20047;-71
2022/02/15 07:21:32;;;;;;;13.02;5.22;;;;;;;;;;5049340;28;20374;-71
2022/02/15 07:23:57;;;;;;;12.98;5.75;;;;;;;;;;5054176;28;20067;-71
2022/02/15 07:26:22;;;;;;;14.43;6.47;;;;;;;;;;5054604;28;20521;-71
2022/02/15 07:28:47;;;;;;;13.80;6.40;;;;;;;;;;5071376;28;20028;-71
2022/02/15 07:31:14;;;;;;;13.60;7.15;;;;;;;;;;5052439;28;20108;-71
2022/02/15 07:33:39;;;;;;;21.67;8.07;;;;;;;;;;5048842;28;20078;-71
2022/02/15 07:36:04;;;;;;;23.45;7.35;;;;;;;;;;5050306;28;20461;-71
2022/02/15 07:38:29;;;;;;;18.67;7.88;;;;;;;;;;5052441;28;20031;-71
2022/02/15 07:40:55;;;;;;;18.13;7.80;;;;;;;;;;5050162;28;20489;-71
2022/02/15 07:43:20;;;;;;;19.58;7.80;;;;;;;;;;5050813;28;20310;-71
2022/02/15 07:45:45;;;;;;;19.02;5.90;;;;;;;;;;5052465;28;20084;-71
2022/02/15 07:48:10;;;;;;;22.13;10.50;;;;;;;;;;5050694;28;20017;-71
2022/02/15 07:50:36;;;;;;;24.75;10.20;;;;;;;;;;5054728;28;20397;-70
2022/02/15 07:53:01;;;;;;;26.10;10.07;;;;;;;;;;5050487;28;20120;-71
2022/02/15 07:55:27;;;;;;;27.42;10.18;;;;;;;;;;5048822;28;20392;-71
2022/02/15 07:57:52;;;;;;;27.80;9.98;;;;;;;;;;5051192;28;20048;-70
2022/02/15 08:00:21;;;;;;;21.95;9.57;;;;;;;;;;5049996;28;20009;-70
2022/02/15 08:02:47;;;;;;;23.02;6.20;;;;;;;;;;5050217;28;20096;-71
2022/02/15 08:05:12;;;;;;;27.17;10.10;;;;;;;;;;5049790;28;20096;-71
2022/02/15 08:07:37;;;;;;;27.20;10.20;;;;;;;;;;5051944;28;20431;-71
2022/02/15 08:10:03;;;;;;;26.00;10.57;;;;;;;;;;5050230;28;20060;-71
2022/02/15 08:12:28;;;;;;;25.25;11.18;;;;;;;;;;5032425;28;20712;-71
2022/02/15 08:14:54;;;;;;;26.30;11.07;;;;;;;;;;5049904;28;20021;-71
2022/02/15 08:17:19;;;;;;;28.20;12.98;;;;;;;;;;5050352;28;20111;-71
2022/02/15 08:19:44;;;;;;;38.33;15.90;;;;;;;;;;5055673;28;20025;-71
2022/02/15 08:22:10;;;;;;;13.93;6.28;;;;;;;;;;5065336;28;20384;-70
2022/02/15 08:24:36;;;;;;;36.30;13.63;;;;;;;;;;5055782;28;20094;-71
2022/02/15 08:27:01;;;;;;;23.85;10.73;;;;;;;;;;5049910;28;20061;-71
2022/02/15 08:29:26;;;;;;;26.58;12.20;;;;;;;;;;5049812;28;20117;-70
2022/02/15 08:31:51;;;;;;;17.88;6.03;;;;;;;;;;5050037;28;20024;-70
2022/02/15 08:34:16;;;;;;;27.20;11.93;;;;;;;;;;5049160;28;20033;-71
2022/02/15 08:36:42;;;;;;;27.70;11.50;;;;;;;;;;5052332;28;20299;-70
2022/02/15 08:39:07;;;;;;;19.58;9.13;;;;;;;;;;5050037;28;20341;-71
2022/02/15 08:41:32;;;;;;;33.70;13.55;;;;;;;;;;5049551;28;20539;-73
2022/02/15 08:43:58;;;;;;;36.35;9.30;;;;;;;;;;5049787;28;20056;-72
2022/02/15 08:46:23;;;;;;;29.35;13.75;;;;;;;;;;5049246;28;20416;-72
2022/02/15 08:48:49;;;;;;;20.98;10.55;;;;;;;;;;5049532;28;20100;-73
2022/02/15 08:51:18;;;;;;;20.30;9.50;;;;;;;;;;5053377;28;20060;-73
2022/02/15 08:53:43;;;;;;;25.43;8.47;;;;;;;;;;5050108;28;20279;-73
2022/02/15 08:56:09;;;;;;;24.67;9.98;;;;;;;;;;5049903;28;20295;-72
2022/02/15 08:58:34;;;;;;;18.30;8.23;;;;;;;;;;5049713;28;20155;-73
2022/02/15 09:01:00;;;;;;;32.65;13.18;;;;;;;;;;5049015;28;20268;-72
2022/02/15 09:03:26;;;;;;;16.52;6.45;;;;;;;;;;5052633;28;20119;-73
2022/02/15 09:05:51;;;;;;;35.05;12.93;;;;;;;;;;5053671;28;20423;-73
2022/02/15 09:08:16;;;;;;;22.23;6.05;;;;;;;;;;5054720;28;20025;-73
2022/02/15 09:10:41;;;;;;;22.20;9.25;;;;;;;;;;5053507;28;20036;-73
2022/02/15 09:13:06;;;;;;;31.97;11.37;;;;;;;;;;5048279;28;20021;-73
2022/02/15 09:15:32;;;;;;;22.38;10.70;;;;;;;;;;5049418;28;20401;-73
2022/02/15 09:17:57;;;;;;;22.48;10.95;;;;;;;;;;5048239;28;20020;-70
2022/02/15 09:20:22;;;;;;;18.67;6.72;;;;;;;;;;5052843;28;20377;-71
2022/02/15 09:22:48;;;;;;;15.38;8.13;;;;;;;;;;5053169;28;20416;-73
2022/02/15 09:25:14;;;;;;;14.75;8.43;;;;;;;;;;5052051;28;20017;-73
2022/02/15 09:27:39;;;;;;;18.70;8.68;;;;;;;;;;5052288;28;20125;-73
2022/02/15 09:30:05;;;;;;;23.10;12.15;;;;;;;;;;5052368;28;20028;-73
2022/02/15 09:32:30;;;;;;;29.35;11.57;;;;;;;;;;5052566;28;20013;-73
2022/02/15 09:34:55;;;;;;;23.40;11.82;;;;;;;;;;5051401;28;20043;-71
2022/02/15 09:37:21;;;;;;;27.35;12.68;;;;;;;;;;5052721;28;20079;-73
2022/02/15 09:39:48;;;;;;;27.92;13.20;;;;;;;;;;5035137;28;20025;-70
2022/02/15 09:42:14;;;;;;;24.60;10.40;;;;;;;;;;5052607;28;20074;-73
2022/02/15 09:44:39;;;;;;;29.63;10.50;;;;;;;;;;5052440;28;20021;-74
2022/02/15 09:47:05;;;;;;;18.38;8.73;;;;;;;;;;5035528;28;20024;-74
2022/02/15 09:49:50;;;;;;;23.42;11.35;;;;;;;;;;5052375;28;20358;-73
2022/02/15 09:52:17;;;;;;;29.13;15.02;;;;;;;;;;5052514;28;20397;-74
2022/02/15 09:54:43;;;;;;;11.10;6.38;;;;;;;;;;5051996;28;20025;-73
2022/02/15 09:57:08;;;;;;;13.77;7.72;;;;;;;;;;5051993;28;20051;-74
2022/02/15 09:59:33;;;;;;;13.52;6.07;;;;;;;;;;5052217;28;20013;-73
2022/02/15 10:02:02;;;;;;;14.85;6.05;;;;;;;;;;5052290;28;20021;-72
2022/02/15 10:04:34;;;;;;;31.63;9.95;;;;;;;;;;5052673;28;20029;-73
2022/02/15 10:07:01;;;;;;;12.65;5.78;;;;;;;;;;5045738;28;20178;-74
2022/02/15 10:09:27;;;;;;;9.13;3.90;;;;;;;;;;5051902;28;20116;-73
2022/02/15 10:11:52;;;;;;;12.55;5.15;;;;;;;;;;5051675;28;20024;-74
2022/02/15 10:14:18;;;;;;;13.40;4.75;;;;;;;;;;5050895;28;20025;-73
2022/02/15 10:16:47;;;;;;;15.05;6.53;;;;;;;;;;5051162;28;20058;-73
2022/02/15 10:19:20;;;;;;;14.73;5.47;;;;;;;;;;5052907;28;20130;-73
2022/02/15 10:21:48;;;;;;;18.40;8.02;;;;;;;;;;5064527;28;20600;-72
2022/02/15 10:24:14;;;;;;;19.50;8.07;;;;;;;;;;5051886;28;20018;-72
2022/02/15 10:26:39;;;;;;;18.00;7.22;;;;;;;;;;5057168;28;20028;-74
2022/02/15 10:29:04;;;;;;;22.90;7.68;;;;;;;;;;5050056;28;20032;-73
2022/02/15 10:31:37;;;;;;;22.25;8.48;;;;;;;;;;5051347;28;20036;-72
2022/02/15 10:34:05;;;;;;;24.95;11.05;;;;;;;;;;5051816;28;20184;-73
2022/02/15 10:36:31;;;;;;;29.13;12.60;;;;;;;;;;5042690;28;20039;-73
2022/02/15 10:38:57;;;;;;;24.65;10.82;;;;;;;;;;5050793;28;20020;-73
2022/02/15 10:41:22;;;;;;;24.20;10.65;;;;;;;;;;5051308;28;20040;-73
2022/02/15 10:43:53;;;;;;;25.60;10.98;;;;;;;;;;5051914;28;20092;-74
2022/02/15 10:46:22;;;;;;;16.40;4.65;;;;;;;;;;5051818;28;20024;-72
2022/02/15 10:48:48;;;;;;;12.85;5.90;;;;;;;;;;5051640;28;20350;-74
2022/02/15 10:51:13;;;;;;;15.32;5.75;;;;;;;;;;5050792;28;20035;-73
2022/02/15 10:53:39;;;;;;;16.23;6.22;;;;;;;;;;5058037;28;20083;-72
2022/02/15 10:56:04;;;;;;;10.65;4.65;;;;;;;;;;5051935;28;20102;-73
2022/02/15 10:58:30;;;;;;;17.75;6.95;;;;;;;;;;5053160;28;20092;-73
2022/02/15 11:00:59;;;;;;;12.65;3.78;;;;;;;;;;5052957;28;20096;-73
2022/02/15 11:03:28;;;;;;;15.30;5.40;;;;;;;;;;5051683;28;20017;-74
2022/02/15 11:05:53;;;;;;;16.20;4.00;;;;;;;;;;5052033;28;20120;-73
2022/02/15 11:08:19;;;;;;;16.03;6.20;;;;;;;;;;5034551;28;20051;-73
2022/02/15 11:10:54;;;;;;;12.57;6.32;;;;;;;;;;5055229;28;20294;-73
2022/02/15 11:13:20;;;;;;;19.52;6.30;;;;;;;;;;5051440;28;20021;-73
2022/02/15 11:15:50;;;;;;;12.18;4.68;;;;;;;;;;5050675;28;20109;-73
2022/02/15 11:18:26;;;;;;;12.23;4.93;;;;;;;;;;5050481;28;20020;-73
2022/02/15 11:20:53;;;;;;;16.45;5.53;;;;;;;;;;5063458;28;20021;-73
2022/02/15 11:23:20;;;;;;;12.55;4.13;;;;;;;;;;5052549;28;20141;-74
2022/02/15 11:25:48;;;;;;;8.00;3.70;;;;;;;;;;5049983;28;20025;-72
2022/02/15 11:28:16;;;;;;;10.50;4.28;;;;;;;;;;5053415;28;20170;-73
2022/02/15 11:30:44;;;;;;;14.32;5.40;;;;;;;;;;5050479;28;20297;-73
2022/02/15 11:33:10;;;;;;;16.63;3.47;;;;;;;;;;5050745;28;20409;-72
2022/02/15 11:35:35;;;;;;;13.30;3.55;;;;;;;;;;5050705;28;20033;-73
2022/02/15 11:38:13;;;;;;;11.40;4.53;;;;;;;;;;5049938;28;20024;-72
2022/02/15 11:40:39;;;;;;;8.48;2.60;;;;;;;;;;5050006;28;20032;-71
2022/02/15 11:43:05;;;;;;;8.93;3.13;;;;;;;;;;5050710;28;20029;-74
2022/02/15 11:45:32;;;;;;;8.90;2.97;;;;;;;;;;5050093;28;20013;-72
2022/02/15 11:48:05;;;;;;;10.07;3.03;;;;;;;;;;5054726;28;20017;-74
2022/02/15 11:50:40;;;;;;;5.95;2.22;;;;;;;;;;5050949;28;20033;-74
2022/02/15 11:53:05;;;;;;;12.05;4.18;;;;;;;;;;5059721;28;20024;-72
2022/02/15 11:55:33;;;;;;;10.80;4.37;;;;;;;;;;5055467;28;20029;-70
2022/02/15 11:57:58;;;;;;;15.70;3.65;;;;;;;;;;5050694;28;20271;-70
2022/02/15 12:00:30;;;;;;;10.25;3.35;;;;;;;;;;5050258;28;20067;-72
2022/02/15 12:02:56;;;;;;;9.80;4.00;;;;;;;;;;5050415;28;20017;-73
2022/02/15 12:05:24;;;;;;;9.95;2.88;;;;;;;;;;5048582;28;20012;-74
2022/02/15 12:07:51;;;;;;;15.50;4.15;;;;;;;;;;5049249;28;20032;-72
2022/02/15 12:10:16;;;;;;;10.45;3.10;;;;;;;;;;5050823;28;20392;-73
2022/02/15 12:12:44;;;;;;;12.30;3.50;;;;;;;;;;5050727;28;20033;-71
2022/02/15 12:15:09;;;;;;;9.48;3.30;;;;;;;;;;5049366;28;20478;-72
2022/02/15 12:17:42;;;;;;;12.27;4.35;;;;;;;;;;5050142;28;20017;-72
2022/02/15 12:20:07;;;;;;;17.35;2.92;;;;;;;;;;5049421;28;20029;-72
2022/02/15 12:22:37;;;;;;;12.48;2.00;;;;;;;;;;5050426;28;20031;-72
2022/02/15 12:25:03;;;;;;;9.60;1.73;;;;;;;;;;5049654;28;20474;-71
2022/02/15 12:27:28;;;;;;;5.93;1.80;;;;;;;;;;5052493;28;20032;-72
2022/02/15 12:29:54;;;;;;;6.07;1.60;;;;;;;;;;5058730;28;20204;-72
2022/02/15 12:32:20;;;;;;;4.38;2.05;;;;;;;;;;5049739;28;20532;-74
2022/02/15 12:34:45;;;;;;;3.05;1.30;;;;;;;;;;5049581;28;20154;-72
2022/02/15 12:37:16;;;;;;;5.97;1.33;;;;;;;;;;5049934;28;20458;-72
2022/02/15 12:39:41;;;;;;;9.10;1.60;;;;;;;;;;5049790;28;20036;-74
2022/02/15 12:42:13;;;;;;;6.13;1.40;;;;;;;;;;5049767;28;20021;-71
2022/02/15 12:44:39;;;;;;;1.02;0.70;;;;;;;;;;5048978;28;20263;-73
2022/02/15 12:47:05;;;;;;;2.30;0.70;;;;;;;;;;5050049;28;20641;-72
2022/02/15 12:49:31;;;;;;;6.93;0.95;;;;;;;;;;5050502;28;20035;-72
2022/02/15 12:51:56;;;;;;;4.28;1.77;;;;;;;;;;5049785;28;20025;-70
2022/02/15 12:54:22;;;;;;;5.03;1.40;;;;;;;;;;5048840;28;20037;-72
2022/02/15 12:56:47;;;;;;;8.13;1.40;;;;;;;;;;5043628;28;20639;-73
2022/02/15 12:59:17;;;;;;;4.72;1.20;;;;;;;;;;5050788;28;20021;-71
2022/02/15 13:01:42;;;;;;;6.55;1.50;;;;;;;;;;5050814;28;20017;-72
2022/02/15 13:04:08;;;;;;;5.70;1.30;;;;;;;;;;5049702;28;20101;-72
2022/02/15 13:06:38;;;;;;;6.93;1.33;;;;;;;;;;5049040;28;20037;-73
2022/02/15 13:09:06;;;;;;;6.90;0.90;;;;;;;;;;5064032;28;20048;-72
2022/02/15 13:11:31;;;;;;;6.57;1.63;;;;;;;;;;5049409;28;20064;-72
2022/02/15 13:13:57;;;;;;;4.95;1.40;;;;;;;;;;5050156;28;20044;-70
2022/02/15 13:16:23;;;;;;;4.15;1.10;;;;;;;;;;5049493;28;20039;-72
2022/02/15 13:18:49;;;;;;;13.95;1.30;;;;;;;;;;5049489;28;20021;-72
2022/02/15 13:21:18;;;;;;;12.90;1.30;;;;;;;;;;5049731;28;20025;-73
2022/02/15 13:23:56;;;;;;;3.55;1.08;;;;;;;;;;5057043;28;20017;-70
2022/02/15 13:26:47;;;;;;;4.88;1.80;;;;;;;;;;5042589;28;20070;-71
2022/02/15 13:29:26;;;;;;;15.05;0.95;;;;;;;;;;5035058;28;20037;-72
2022/02/15 13:31:51;;;;;;;5.47;0.90;;;;;;;;;;5048982;28;20032;-73
2022/02/15 13:34:26;;;;;;;3.55;1.23;;;;;;;;;;5049894;28;20399;-73
2022/02/15 13:36:58;;;;;;;4.10;1.10;;;;;;;;;;5049002;28;20052;-71
2022/02/15 13:39:24;;;;;;;3.80;0.88;;;;;;;;;;5050342;28;20036;-74
2022/02/15 13:41:49;;;;;;;2.25;0.70;;;;;;;;;;5049616;28;20500;-71
2022/02/15 13:44:15;;;;;;;4.63;1.35;;;;;;;;;;5048882;28;20100;-70
2022/02/15 13:46:40;;;;;;;3.05;1.10;;;;;;;;;;5049367;28;20462;-72
2022/02/15 13:49:06;;;;;;;1.30;0.55;;;;;;;;;;5051886;28;20060;-70
2022/02/15 13:51:31;;;;;;;6.80;1.33;;;;;;;;;;5053574;28;20017;-72
2022/02/15 13:53:57;;;;;;;6.95;1.23;;;;;;;;;;5053257;28;20017;-71
2022/02/15 13:56:23;;;;;;;6.40;1.10;;;;;;;;;;5060674;28;20077;-70
2022/02/15 13:58:48;;;;;;;4.32;0.85;;;;;;;;;;5062172;28;20107;-70
2022/02/15 14:01:13;;;;;;;3.10;0.52;;;;;;;;;;5073292;28;20027;-72
2022/02/15 14:03:39;;;;;;;2.03;0.90;;;;;;;;;;5054732;28;20021;-72
2022/02/15 14:06:04;;;;;;;7.40;1.40;;;;;;;;;;5052388;28;20271;-72
2022/02/15 14:08:29;;;;;;;7.35;1.23;;;;;;;;;;5052972;28;20059;-71
2022/02/15 14:10:55;;;;;;;3.40;1.00;;;;;;;;;;5053760;28;20623;-74
2022/02/15 14:13:20;;;;;;;1.27;0.90;;;;;;;;;;5053212;28;20279;-72
2022/02/15 14:15:45;;;;;;;3.40;0.70;;;;;;;;;;5035376;28;20267;-74
2022/02/15 14:18:10;;;;;;;4.50;0.35;;;;;;;;;;5053452;28;20294;-71
2022/02/15 14:20:35;;;;;;;2.05;0.52;;;;;;;;;;5054114;28;20021;-70
2022/02/15 14:23:01;;;;;;;9.75;1.05;;;;;;;;;;5052786;28;20446;-71
2022/02/15 14:25:26;;;;;;;4.63;0.60;;;;;;;;;;5057462;28;20029;-73
2022/02/15 14:27:52;;;;;;;3.88;0.82;;;;;;;;;;5052619;28;20112;-70
2022/02/15 14:30:19;;;;;;;4.95;0.40;;;;;;;;;;5052509;28;20025;-71
2022/02/15 14:32:45;;;;;;;2.80;0.95;;;;;;;;;;5053628;28;20052;-72